This is the latest recevied weather packets stored in our database for station/object LKCS. If no packets are shown the sender has not sent any weather packets the latest 10 day(s).
| Time | Temp. | Humidity | Pressure | Rain* | Wind** | Luminosity | Snow |
|---|---|---|---|---|---|---|---|
| 1787776351 | 21.11° C | 68% | 1018 hPa | - | - | - | - |
| 1787774587 | 22.22° C | 64% | 1018 hPa | - | - | - | - |
| 1787772751 | 20° C | 72% | 1018 hPa | - | - | - | - |
| 1787770987 | 20° C | 72% | 1018 hPa | - | - | - | - |
| 1787769184 | 20° C | 77% | 1018 hPa | - | - | - | - |
| 1787767387 | 22.78° C | 60% | 1018 hPa | - | - | - | - |
| 1787765585 | 22.78° C | 60% | 1018 hPa | - | - | - | - |
| 1787763759 | 23.89° C | 53% | 1018 hPa | - | - | - | - |
| 1787761985 | 25° C | 50% | 1017 hPa | - | - | - | - |
| 1787760186 | 26.11° C | 47% | 1018 hPa | - | - | - | - |
| 1787758358 | 25° C | 47% | 1018 hPa | - | - | - | - |
| 1787756587 | 26.11° C | 47% | 1018 hPa | - | - | - | - |
| 1787754765 | 26.11° C | 47% | 1018 hPa | - | - | - | - |
| 1787752967 | 25° C | 50% | 1018 hPa | - | - | - | - |
| 1787751184 | 26.11° C | 47% | 1018 hPa | - | - | - | - |
| 1787749399 | 23.89° C | 53% | 1018 hPa | - | - | - | - |
| 1787747559 | 25° C | 47% | 1018 hPa | - | - | - | - |
| 1787745793 | 22.78° C | 53% | 1018 hPa | - | - | - | - |
| 1787743958 | 22.78° C | 56% | 1018 hPa | - | - | - | - |
| 1787742153 | 23.89° C | 53% | 1018 hPa | - | - | - | - |
| 1787740351 | 23.89° C | 57% | 1018 hPa | - | - | - | - |
| 1787738593 | 22.78° C | 56% | 1019 hPa | - | - | - | - |
| 1787736785 | 21.11° C | 64% | 1019 hPa | - | - | - | - |
| 1787734982 | 20° C | 68% | 1019 hPa | - | - | - | - |
| 1787733185 | 20° C | 72% | 1019 hPa | - | - | - | - |
* Rain since midnight (hover to see other rain measurements)
** Current wind speed in m/s (hover to see current wind gust speed)